Time;durP1;ratioP1;P1;durP2;ratioP2;P2;SDS_P1;SDS_P2;PMS_P1;PMS_P2;Temp;Humidity;BMP_temperature;BMP_pressure;BME280_temperature;BME280_humidity;BME280_pressure;Samples;Min_cycle;Max_cycle;Signal;HPM_P1;HPM_P2
2023/12/28 00:00:37;;;;;;;3.47;2.35;;;11.40;99.90;;;;;;5050489;28;20033;-75
2023/12/28 00:03:03;;;;;;;3.20;2.30;;;11.40;99.90;;;;;;5043806;28;20070;-75
2023/12/28 00:05:29;;;;;;;4.72;2.20;;;11.40;99.90;;;;;;5045591;28;20029;-75
2023/12/28 00:07:57;;;;;;;2.70;2.00;;;11.40;99.90;;;;;;5050154;28;20021;-75
2023/12/28 00:10:27;;;;;;;5.88;2.40;;;11.30;99.90;;;;;;5044136;28;20100;-75
2023/12/28 00:12:54;;;;;;;3.53;2.20;;;11.40;99.90;;;;;;5050061;28;20056;-75
2023/12/28 00:15:21;;;;;;;4.68;2.58;;;11.40;99.90;;;;;;5043180;28;20097;-75
2023/12/28 00:17:47;;;;;;;3.20;2.10;;;11.40;99.90;;;;;;5046407;28;20112;-76
2023/12/28 00:20:12;;;;;;;2.95;2.03;;;11.40;99.90;;;;;;5044115;28;20108;-76
2023/12/28 00:22:38;;;;;;;3.47;2.70;;;11.50;99.90;;;;;;5047665;28;20429;-75
2023/12/28 00:25:05;;;;;;;2.72;2.50;;;11.40;99.90;;;;;;5047650;28;20028;-75
2023/12/28 00:27:30;;;;;;;7.60;2.40;;;11.40;99.90;;;;;;5046135;28;20057;-75
2023/12/28 00:29:56;;;;;;;8.02;2.35;;;11.50;99.90;;;;;;5056818;28;20433;-75
2023/12/28 00:32:22;;;;;;;3.63;2.63;;;11.40;99.90;;;;;;5047670;28;20033;-75
2023/12/28 00:34:48;;;;;;;2.95;2.65;;;11.40;99.90;;;;;;5051475;28;20056;-75
2023/12/28 00:37:13;;;;;;;4.05;2.17;;;11.40;99.90;;;;;;5048263;28;20036;-76
2023/12/28 00:39:40;;;;;;;4.10;2.40;;;11.40;99.90;;;;;;5044006;28;20088;-75
2023/12/28 00:42:06;;;;;;;4.00;2.83;;;11.40;99.90;;;;;;5046187;28;20430;-76
2023/12/28 00:44:32;;;;;;;2.55;2.25;;;11.40;99.90;;;;;;5043632;28;20080;-75
2023/12/28 00:46:58;;;;;;;3.53;2.35;;;11.50;99.90;;;;;;5050135;28;20104;-75
2023/12/28 00:49:24;;;;;;;5.10;2.55;;;11.40;99.90;;;;;;5048413;28;20036;-76
2023/12/28 00:51:49;;;;;;;5.68;3.10;;;11.40;99.90;;;;;;5052329;28;20040;-75
2023/12/28 00:54:15;;;;;;;3.75;2.33;;;11.50;99.90;;;;;;5044332;28;20029;-76
2023/12/28 00:56:41;;;;;;;4.97;2.65;;;11.50;99.90;;;;;;5047566;28;20021;-75
2023/12/28 00:59:06;;;;;;;3.55;2.70;;;11.50;99.90;;;;;;5050335;28;20112;-75
2023/12/28 01:01:32;;;;;;;5.65;2.83;;;11.50;99.90;;;;;;5051307;28;20035;-75
2023/12/28 01:03:58;;;;;;;4.47;3.00;;;11.50;99.90;;;;;;5050260;28;20041;-75
2023/12/28 01:06:28;;;;;;;3.72;2.60;;;11.50;99.90;;;;;;5046367;28;20415;-75
2023/12/28 01:08:54;;;;;;;3.75;2.42;;;11.40;99.90;;;;;;5039764;28;20151;-75
2023/12/28 01:11:20;;;;;;;4.57;2.75;;;11.40;99.90;;;;;;5049047;28;20017;-74
2023/12/28 01:13:46;;;;;;;5.93;2.67;;;11.50;99.90;;;;;;5047755;28;20501;-75
2023/12/28 01:16:14;;;;;;;4.10;2.88;;;11.50;99.90;;;;;;5043401;28;20029;-75
2023/12/28 01:18:40;;;;;;;6.68;3.28;;;11.40;99.90;;;;;;5047927;28;20025;-76
2023/12/28 01:21:06;;;;;;;6.05;2.60;;;11.40;99.90;;;;;;5029068;28;21703;-75
2023/12/28 01:23:32;;;;;;;4.32;2.70;;;11.40;99.90;;;;;;5019338;28;20493;-74
2023/12/28 01:25:59;;;;;;;3.97;3.28;;;11.40;99.90;;;;;;5034402;28;20032;-75
2023/12/28 01:28:24;;;;;;;4.78;2.53;;;11.40;99.90;;;;;;5037420;28;20086;-75
2023/12/28 01:30:50;;;;;;;3.40;2.60;;;11.40;99.90;;;;;;5041029;28;20109;-75
2023/12/28 01:33:16;;;;;;;3.25;2.78;;;11.40;99.90;;;;;;5034121;28;20032;-75
2023/12/28 01:35:41;;;;;;;5.25;3.03;;;11.40;99.90;;;;;;5038053;28;20501;-75
2023/12/28 01:38:07;;;;;;;3.88;2.90;;;11.40;99.90;;;;;;5033885;28;20026;-75
2023/12/28 01:40:33;;;;;;;5.30;2.78;;;11.40;99.90;;;;;;5032120;28;20025;-75
2023/12/28 01:42:59;;;;;;;7.13;4.28;;;11.40;99.90;;;;;;5031049;28;20029;-75
2023/12/28 01:45:25;;;;;;;4.45;2.67;;;11.40;99.90;;;;;;5034257;28;20156;-75
2023/12/28 01:47:52;;;;;;;6.35;2.90;;;11.40;99.90;;;;;;5037118;28;20029;-75
2023/12/28 01:50:20;;;;;;;6.95;2.55;;;11.40;99.90;;;;;;5033255;28;20049;-75
2023/12/28 01:52:46;;;;;;;7.65;3.55;;;11.30;99.90;;;;;;5035385;28;20017;-76
2023/12/28 01:55:13;;;;;;;4.68;2.85;;;11.30;99.90;;;;;;5038853;28;20481;-75
2023/12/28 01:57:39;;;;;;;4.45;3.22;;;11.30;99.90;;;;;;5034881;28;20120;-75
2023/12/28 02:00:05;;;;;;;4.50;3.13;;;11.30;99.90;;;;;;5034864;28;20025;-75
2023/12/28 02:02:32;;;;;;;3.85;2.67;;;11.30;99.90;;;;;;5035922;28;20538;-75
2023/12/28 02:04:59;;;;;;;5.72;2.38;;;11.20;99.90;;;;;;5036738;28;20037;-75
2023/12/28 02:07:25;;;;;;;6.22;3.10;;;11.30;99.90;;;;;;5034550;28;20119;-75
2023/12/28 02:09:51;;;;;;;5.70;3.28;;;11.30;99.90;;;;;;5037828;28;20024;-75
2023/12/28 02:12:17;;;;;;;4.43;2.40;;;11.30;99.90;;;;;;5036460;28;20462;-76
2023/12/28 02:14:44;;;;;;;8.30;3.50;;;11.30;99.90;;;;;;5036191;28;20026;-75
2023/12/28 02:17:19;;;;;;;3.70;2.85;;;11.30;99.90;;;;;;5034844;28;20025;-75
2023/12/28 02:19:50;;;;;;;4.15;2.90;;;11.30;99.90;;;;;;5033700;28;20033;-76
2023/12/28 02:22:16;;;;;;;5.82;2.97;;;11.30;99.90;;;;;;5035773;28;20465;-75
2023/12/28 02:25:17;;;;;;;4.57;2.88;;;11.20;99.90;;;;;;5036952;28;20048;-76
2023/12/28 02:27:48;;;;;;;4.15;2.88;;;11.20;99.90;;;;;;5035651;28;20041;-75
2023/12/28 02:30:16;;;;;;;5.03;3.33;;;11.20;99.90;;;;;;5035420;28;20039;-76
2023/12/28 02:33:07;;;;;;;7.90;3.35;;;11.20;99.90;;;;;;5038759;28;20021;-75
2023/12/28 02:35:37;;;;;;;6.13;3.20;;;11.20;99.90;;;;;;5034776;28;20120;-75
2023/12/28 02:38:07;;;;;;;3.10;2.80;;;11.20;99.90;;;;;;5030682;28;20029;-76
2023/12/28 02:40:38;;;;;;;7.15;3.40;;;11.10;99.90;;;;;;5034089;28;20030;-75
2023/12/28 02:43:05;;;;;;;5.85;3.20;;;11.10;99.90;;;;;;5031201;28;20092;-76
2023/12/28 02:45:31;;;;;;;5.80;3.03;;;11.10;99.90;;;;;;5035331;28;20135;-76
2023/12/28 02:47:56;;;;;;;3.13;2.88;;;11.10;99.90;;;;;;5037189;28;20517;-75
2023/12/28 02:50:22;;;;;;;9.05;3.42;;;11.10;99.90;;;;;;5035193;28;20037;-75
2023/12/28 02:52:48;;;;;;;8.85;3.15;;;11.20;99.90;;;;;;5036788;28;20029;-75
2023/12/28 02:55:14;;;;;;;3.78;2.83;;;11.10;99.90;;;;;;5033957;28;20021;-75
2023/12/28 02:57:40;;;;;;;5.50;3.05;;;11.10;99.90;;;;;;5033785;28;20037;-75
2023/12/28 03:00:08;;;;;;;3.55;3.00;;;11.10;99.90;;;;;;5033557;28;20125;-75
2023/12/28 03:02:36;;;;;;;5.88;3.25;;;11.10;99.90;;;;;;5033857;28;20101;-75
2023/12/28 03:05:01;;;;;;;4.82;3.28;;;11.10;99.90;;;;;;5031839;28;20060;-76
2023/12/28 03:07:27;;;;;;;4.10;2.65;;;11.10;99.90;;;;;;5040308;28;20532;-74
2023/12/28 03:09:53;;;;;;;6.35;3.60;;;11.10;99.90;;;;;;5042912;28;20025;-75
2023/12/28 03:12:18;;;;;;;5.07;3.40;;;11.10;99.90;;;;;;5038593;28;20501;-75
2023/12/28 03:14:44;;;;;;;6.93;3.28;;;11.00;99.90;;;;;;5036712;28;20037;-75
2023/12/28 03:17:11;;;;;;;4.00;3.08;;;11.00;99.90;;;;;;5038550;28;20017;-75
2023/12/28 03:19:37;;;;;;;4.38;3.25;;;11.00;99.90;;;;;;5037329;28;20540;-75
2023/12/28 03:22:03;;;;;;;6.47;3.50;;;11.00;99.90;;;;;;5040152;28;20030;-74
2023/12/28 03:24:29;;;;;;;4.97;3.20;;;11.10;99.90;;;;;;5039461;28;20095;-76
2023/12/28 03:26:54;;;;;;;8.63;3.00;;;11.10;99.90;;;;;;5040964;28;20467;-75
2023/12/28 03:29:22;;;;;;;7.90;2.95;;;11.20;99.90;;;;;;5041260;28;20028;-78
2023/12/28 03:31:49;;;;;;;4.45;3.20;;;11.10;99.90;;;;;;5034258;28;20065;-75
2023/12/28 03:34:15;;;;;;;7.78;3.40;;;11.10;99.90;;;;;;5038561;28;20466;-78
2023/12/28 03:36:41;;;;;;;6.53;3.35;;;11.10;99.90;;;;;;5037852;28;20012;-77
2023/12/28 03:39:08;;;;;;;9.00;3.45;;;11.10;99.90;;;;;;5036897;28;20453;-76
2023/12/28 03:41:34;;;;;;;8.13;2.75;;;11.10;99.90;;;;;;5037994;28;20056;-77
2023/12/28 03:44:00;;;;;;;5.43;3.13;;;11.00;99.90;;;;;;5038632;28;20350;-75
2023/12/28 03:46:26;;;;;;;5.30;3.05;;;11.10;99.90;;;;;;5037558;28;20201;-76
2023/12/28 03:48:54;;;;;;;7.70;2.83;;;11.00;99.90;;;;;;5041828;28;20040;-76
2023/12/28 03:51:20;;;;;;;5.57;3.00;;;11.00;99.90;;;;;;5035149;28;20087;-76
2023/12/28 03:53:46;;;;;;;6.25;3.08;;;11.10;99.90;;;;;;5037446;28;20668;-75
2023/12/28 03:56:32;;;;;;;5.68;3.03;;;11.10;99.90;;;;;;5038975;28;20152;-78
2023/12/28 03:58:58;;;;;;;6.03;3.13;;;11.10;99.90;;;;;;5038665;28;20372;-76
2023/12/28 04:01:24;;;;;;;4.53;3.40;;;11.10;99.90;;;;;;5037255;28;20029;-76
2023/12/28 04:03:50;;;;;;;5.30;2.40;;;11.10;99.90;;;;;;5039059;28;20513;-76
2023/12/28 04:06:16;;;;;;;5.32;2.60;;;11.10;99.90;;;;;;5038591;28;20457;-75
2023/12/28 04:08:43;;;;;;;6.97;3.15;;;11.10;99.90;;;;;;5038048;28;20036;-76
2023/12/28 04:11:09;;;;;;;6.18;3.05;;;11.00;99.90;;;;;;5040230;28;20020;-75
2023/12/28 04:13:35;;;;;;;6.80;2.63;;;11.10;99.90;;;;;;5040952;28;20033;-75
2023/12/28 04:16:02;;;;;;;3.60;3.00;;;11.10;99.90;;;;;;5037168;28;20024;-76
2023/12/28 04:18:28;;;;;;;6.65;3.17;;;11.10;99.90;;;;;;5034322;28;20493;-75
2023/12/28 04:20:54;;;;;;;5.28;2.63;;;11.10;99.90;;;;;;5036247;28;20033;-77
2023/12/28 04:23:20;;;;;;;6.80;2.90;;;11.10;99.90;;;;;;5039660;28;20036;-78
2023/12/28 04:25:46;;;;;;;6.50;2.70;;;11.10;99.90;;;;;;5040319;28;20104;-77
2023/12/28 04:28:12;;;;;;;3.45;2.55;;;11.10;99.90;;;;;;5038435;28;20028;-78
2023/12/28 04:30:38;;;;;;;5.47;2.92;;;11.10;99.90;;;;;;5036792;28;20025;-76
2023/12/28 04:33:04;;;;;;;6.53;3.05;;;11.10;99.90;;;;;;5034151;28;20026;-75
2023/12/28 04:35:30;;;;;;;5.60;2.90;;;11.10;99.90;;;;;;5037263;28;20458;-75
2023/12/28 04:37:56;;;;;;;5.75;3.03;;;11.00;99.90;;;;;;5037166;28;20033;-75
2023/12/28 04:40:22;;;;;;;6.28;2.67;;;11.10;99.90;;;;;;5036390;28;20032;-75
2023/12/28 04:42:47;;;;;;;4.93;2.60;;;11.00;99.90;;;;;;5034913;28;20382;-74
2023/12/28 04:45:13;;;;;;;5.97;2.65;;;11.10;99.90;;;;;;5038976;28;20389;-75
2023/12/28 04:47:39;;;;;;;8.82;2.53;;;11.10;99.90;;;;;;5038659;28;20104;-78
2023/12/28 04:50:06;;;;;;;6.80;2.70;;;11.10;99.90;;;;;;5036702;28;20646;-76
2023/12/28 04:52:32;;;;;;;6.18;2.40;;;11.10;99.90;;;;;;5033080;28;20021;-77
2023/12/28 04:54:58;;;;;;;5.47;2.50;;;11.10;99.90;;;;;;5032567;28;20473;-75
2023/12/28 04:57:25;;;;;;;4.70;2.45;;;11.10;99.90;;;;;;5039366;28;20068;-77
2023/12/28 04:59:51;;;;;;;6.20;2.80;;;11.10;99.90;;;;;;5036618;28;20022;-75
2023/12/28 05:02:17;;;;;;;6.53;2.33;;;11.00;99.90;;;;;;5035953;28;20025;-76
2023/12/28 05:04:43;;;;;;;9.27;2.63;;;11.10;99.90;;;;;;5036077;28;20116;-76
2023/12/28 05:07:08;;;;;;;5.55;2.58;;;11.10;99.90;;;;;;5036070;28;20033;-76
2023/12/28 05:09:34;;;;;;;7.80;2.95;;;11.10;99.90;;;;;;5039221;28;20037;-76
2023/12/28 05:12:01;;;;;;;9.50;2.60;;;11.10;99.90;;;;;;5036214;28;20048;-75
2023/12/28 05:14:26;;;;;;;7.15;2.55;;;11.10;99.90;;;;;;5038340;28;20474;-76
2023/12/28 05:16:52;;;;;;;8.73;2.80;;;11.10;99.90;;;;;;5035135;28;20029;-75
2023/12/28 05:19:19;;;;;;;6.50;2.85;;;11.10;99.90;;;;;;5038043;28;20044;-75
2023/12/28 05:21:46;;;;;;;10.68;2.30;;;11.20;99.90;;;;;;5038625;28;20025;-75
2023/12/28 05:24:11;;;;;;;8.80;2.22;;;11.20;99.90;;;;;;5038955;28;20103;-78
2023/12/28 05:26:37;;;;;;;10.05;3.50;;;11.30;99.90;;;;;;5039059;28;20052;-76
2023/12/28 05:29:03;;;;;;;9.63;3.03;;;11.30;99.90;;;;;;5041116;28;20045;-75
2023/12/28 05:31:29;;;;;;;8.88;2.85;;;11.20;99.90;;;;;;5034405;28;20017;-78
2023/12/28 05:33:55;;;;;;;13.05;2.95;;;11.20;99.90;;;;;;5035659;28;20490;-76
2023/12/28 05:36:20;;;;;;;10.52;2.67;;;11.20;99.90;;;;;;5033224;28;20474;-76
2023/12/28 05:38:47;;;;;;;7.00;2.30;;;11.20;99.90;;;;;;5034124;28;20486;-76
2023/12/28 05:41:13;;;;;;;13.13;2.65;;;11.30;99.90;;;;;;5035425;28;20474;-75
2023/12/28 05:43:39;;;;;;;6.97;2.40;;;11.20;99.90;;;;;;5034286;28;20041;-75
2023/12/28 05:46:05;;;;;;;7.15;2.45;;;11.20;99.90;;;;;;5036493;28;20017;-75
2023/12/28 05:48:31;;;;;;;9.93;2.60;;;11.20;99.90;;;;;;5038061;28;20367;-76
2023/12/28 05:50:59;;;;;;;5.40;2.30;;;11.30;99.90;;;;;;5037591;28;20037;-75
2023/12/28 05:53:27;;;;;;;8.18;2.67;;;11.30;99.90;;;;;;5034216;28;20021;-75
2023/12/28 05:55:53;;;;;;;10.50;2.38;;;11.20;99.90;;;;;;5032599;28;20109;-75
2023/12/28 05:58:19;;;;;;;11.10;3.00;;;11.20;99.90;;;;;;5036666;28;20397;-75
2023/12/28 06:00:48;;;;;;;6.72;2.97;;;11.20;99.90;;;;;;5031863;28;20013;-75
2023/12/28 06:03:14;;;;;;;9.02;2.60;;;11.30;99.90;;;;;;5033208;28;20493;-75
2023/12/28 06:05:42;;;;;;;11.50;2.72;;;11.20;99.90;;;;;;5035371;28;20040;-75
2023/12/28 06:08:07;;;;;;;13.50;2.70;;;11.20;99.90;;;;;;5037367;28;20047;-75
2023/12/28 06:10:33;;;;;;;8.13;2.78;;;11.20;99.90;;;;;;5035866;28;20104;-75
2023/12/28 06:12:59;;;;;;;11.73;2.47;;;11.20;99.90;;;;;;5033429;28;20106;-75
2023/12/28 06:15:25;;;;;;;10.25;2.03;;;11.20;99.90;;;;;;5034998;28;20039;-75
2023/12/28 06:17:50;;;;;;;9.82;2.50;;;11.20;99.90;;;;;;5036085;28;20036;-76
2023/12/28 06:20:19;;;;;;;12.52;2.78;;;11.20;99.90;;;;;;5030797;28;20033;-77
2023/12/28 06:22:48;;;;;;;17.02;3.08;;;11.10;99.90;;;;;;5037149;28;20028;-75
2023/12/28 06:25:14;;;;;;;8.45;2.35;;;11.20;99.90;;;;;;5034937;28;20032;-76
2023/12/28 06:27:40;;;;;;;14.13;2.95;;;11.30;99.90;;;;;;5037145;28;20849;-75
2023/12/28 06:30:09;;;;;;;13.82;3.42;;;11.30;99.90;;;;;;5037116;28;20024;-76
2023/12/28 06:32:35;;;;;;;13.30;2.80;;;11.30;99.90;;;;;;5036145;28;20027;-77
2023/12/28 06:35:01;;;;;;;14.65;2.50;;;11.30;99.90;;;;;;5033702;28;20025;-75
2023/12/28 06:37:26;;;;;;;16.45;3.00;;;11.30;99.90;;;;;;5036735;28;20032;-75
2023/12/28 06:39:52;;;;;;;14.18;3.00;;;11.20;99.90;;;;;;5035338;28;20387;-75
2023/12/28 06:42:18;;;;;;;15.63;2.70;;;11.30;99.90;;;;;;5031151;28;22752;-77
2023/12/28 06:44:44;;;;;;;8.90;3.17;;;11.20;99.90;;;;;;5036156;28;20045;-77
2023/12/28 06:47:10;;;;;;;12.57;2.65;;;11.20;99.90;;;;;;5036494;28;20604;-75
2023/12/28 06:49:35;;;;;;;14.13;2.92;;;11.20;99.90;;;;;;5035822;28;20133;-76
2023/12/28 06:52:01;;;;;;;10.77;2.53;;;11.30;99.90;;;;;;5036073;28;20021;-76
2023/12/28 06:54:29;;;;;;;11.75;2.72;;;11.30;99.90;;;;;;5036973;28;20493;-76
2023/12/28 06:56:54;;;;;;;16.80;3.40;;;11.20;99.90;;;;;;5034891;28;20021;-75
2023/12/28 06:59:20;;;;;;;11.23;3.13;;;11.20;99.90;;;;;;5036571;28;20028;-75
2023/12/28 07:01:48;;;;;;;14.23;2.72;;;11.10;99.90;;;;;;5032178;28;20052;-75
2023/12/28 07:04:13;;;;;;;18.40;3.03;;;11.20;99.90;;;;;;5037899;28;20037;-75
2023/12/28 07:06:40;;;;;;;13.85;2.55;;;11.10;99.90;;;;;;5035594;28;20041;-75
2023/12/28 07:09:06;;;;;;;14.57;3.05;;;11.10;99.90;;;;;;5037554;28;20045;-75
2023/12/28 07:11:33;;;;;;;19.77;4.07;;;11.10;99.90;;;;;;5035242;28;20483;-75
2023/12/28 07:13:58;;;;;;;13.65;2.47;;;11.10;99.90;;;;;;5035897;28;20033;-75
2023/12/28 07:16:24;;;;;;;13.60;2.67;;;11.20;99.90;;;;;;5035582;28;20028;-75
2023/12/28 07:18:50;;;;;;;12.00;3.50;;;11.20;99.90;;;;;;5034043;28;20036;-75
2023/12/28 07:21:16;;;;;;;16.60;2.55;;;11.20;99.90;;;;;;5035936;28;20018;-75
2023/12/28 07:23:42;;;;;;;9.57;2.58;;;11.20;99.90;;;;;;5036244;28;20040;-75
2023/12/28 07:26:07;;;;;;;20.50;3.97;;;11.20;99.90;;;;;;5033857;28;20179;-74
2023/12/28 07:28:33;;;;;;;12.98;2.83;;;11.20;99.90;;;;;;5034018;28;20025;-74
2023/12/28 07:30:59;;;;;;;12.07;2.78;;;11.00;99.90;;;;;;5031985;28;20024;-75
2023/12/28 07:33:25;;;;;;;13.00;3.33;;;11.10;99.90;;;;;;5037251;28;20544;-74
2023/12/28 07:35:50;;;;;;;20.75;3.45;;;11.10;99.90;;;;;;5034881;28;20059;-75
2023/12/28 07:38:16;;;;;;;14.57;3.22;;;11.10;99.90;;;;;;5036264;28;20501;-76
2023/12/28 07:40:42;;;;;;;14.25;2.50;;;11.10;99.90;;;;;;5036584;28;20128;-74
2023/12/28 07:43:07;;;;;;;15.75;2.95;;;11.00;99.90;;;;;;5033835;28;20033;-74
2023/12/28 07:45:34;;;;;;;13.52;3.10;;;11.00;99.90;;;;;;5031901;28;20033;-74
2023/12/28 07:48:00;;;;;;;11.75;2.47;;;11.00;99.90;;;;;;5034549;28;20021;-74
2023/12/28 07:50:25;;;;;;;18.52;2.92;;;11.00;99.90;;;;;;5033598;28;20041;-76
2023/12/28 07:52:51;;;;;;;23.25;3.28;;;10.90;99.90;;;;;;5036223;28;20044;-74
2023/12/28 07:55:17;;;;;;;16.27;3.35;;;10.80;99.90;;;;;;5038239;28;20029;-75
2023/12/28 07:57:43;;;;;;;11.85;3.00;;;10.90;99.90;;;;;;5036620;28;20497;-76
2023/12/28 08:00:09;;;;;;;12.73;2.50;;;10.80;99.90;;;;;;5039765;28;20432;-74
2023/12/28 08:02:35;;;;;;;11.73;2.30;;;10.90;99.90;;;;;;5035749;28;20024;-73
2023/12/28 08:05:01;;;;;;;11.07;2.80;;;10.90;99.90;;;;;;5039817;28;20937;-74
2023/12/28 08:07:26;;;;;;;10.65;2.42;;;10.90;99.90;;;;;;5038394;28;20032;-75
2023/12/28 08:09:53;;;;;;;20.80;3.53;;;10.90;99.90;;;;;;5040834;28;20025;-77
2023/12/28 08:12:20;;;;;;;19.15;3.70;;;10.80;99.90;;;;;;5039855;28;20036;-74
2023/12/28 08:14:46;;;;;;;12.38;3.20;;;10.90;99.90;;;;;;5034283;28;20036;-76
2023/12/28 08:17:12;;;;;;;13.25;3.17;;;10.90;99.90;;;;;;5038668;28;20112;-75
2023/12/28 08:19:38;;;;;;;13.70;2.53;;;10.90;99.90;;;;;;5037106;28;20112;-76
2023/12/28 08:22:04;;;;;;;13.20;2.63;;;11.00;99.90;;;;;;5035741;28;20490;-76
2023/12/28 08:24:30;;;;;;;11.32;3.22;;;11.00;99.90;;;;;;5034118;28;20076;-75
2023/12/28 08:26:59;;;;;;;8.93;2.33;;;11.00;99.90;;;;;;5041655;28;20113;-75
2023/12/28 08:29:25;;;;;;;13.88;3.47;;;11.00;99.90;;;;;;5039134;28;20032;-75
2023/12/28 08:31:52;;;;;;;18.50;3.50;;;11.10;99.90;;;;;;5036192;28;20337;-75
2023/12/28 08:34:18;;;;;;;12.18;2.88;;;11.10;99.90;;;;;;5035688;28;20026;-74
2023/12/28 08:36:43;;;;;;;18.50;3.50;;;11.10;99.90;;;;;;5037438;28;20020;-75
2023/12/28 08:39:09;;;;;;;17.35;2.95;;;11.00;99.90;;;;;;5037270;28;20029;-78
2023/12/28 08:41:35;;;;;;;13.60;2.80;;;11.10;99.90;;;;;;5030033;28;20585;-74
2023/12/28 08:44:00;;;;;;;20.20;3.08;;;11.20;99.90;;;;;;5036317;28;20029;-75
2023/12/28 08:46:29;;;;;;;17.33;3.47;;;11.10;99.90;;;;;;5035504;28;20029;-75
2023/12/28 08:48:54;;;;;;;15.00;3.08;;;11.10;99.90;;;;;;5039521;28;20395;-74
2023/12/28 08:51:20;;;;;;;12.30;2.70;;;11.10;99.90;;;;;;5037135;28;20021;-75
2023/12/28 08:53:46;;;;;;;7.82;2.47;;;11.20;99.90;;;;;;5032819;28;20029;-75
2023/12/28 08:56:22;;;;;;;19.77;3.88;;;11.20;99.90;;;;;;5035789;28;20044;-75
2023/12/28 08:58:50;;;;;;;15.15;2.97;;;11.10;99.90;;;;;;5033446;28;20221;-75
2023/12/28 09:01:25;;;;;;;14.95;3.17;;;11.20;99.90;;;;;;5035849;28;20026;-74
2023/12/28 09:03:52;;;;;;;13.93;2.65;;;11.10;99.90;;;;;;5037621;28;20114;-74
2023/12/28 09:06:19;;;;;;;17.60;3.17;;;11.20;99.90;;;;;;5035479;28;20017;-75
2023/12/28 09:08:47;;;;;;;23.77;3.70;;;11.10;99.90;;;;;;5040182;28;20048;-74
2023/12/28 09:11:14;;;;;;;18.15;3.35;;;11.20;99.90;;;;;;5034569;28;20588;-75
2023/12/28 09:13:41;;;;;;;12.23;2.40;;;11.20;99.90;;;;;;5033890;28;20029;-74
2023/12/28 09:16:09;;;;;;;8.82;2.28;;;11.30;99.90;;;;;;5031550;28;20026;-75
2023/12/28 09:18:37;;;;;;;11.82;2.58;;;11.30;99.90;;;;;;5032654;28;20025;-74
2023/12/28 09:21:04;;;;;;;14.88;3.13;;;11.30;99.90;;;;;;5032416;28;20025;-74
2023/12/28 09:23:31;;;;;;;15.88;3.20;;;11.30;99.90;;;;;;5032628;28;20351;-74
2023/12/28 09:26:03;;;;;;;15.10;3.22;;;11.30;99.90;;;;;;5035353;28;20026;-74
2023/12/28 09:28:29;;;;;;;12.63;3.25;;;11.40;99.90;;;;;;5038307;28;20036;-74
2023/12/28 09:30:55;;;;;;;12.52;2.97;;;11.50;99.90;;;;;;5038063;28;20025;-75
2023/12/28 09:33:20;;;;;;;11.43;2.95;;;11.60;99.90;;;;;;5033397;28;20031;-74
2023/12/28 09:35:47;;;;;;;12.07;3.03;;;11.60;99.90;;;;;;5031544;28;20162;-75
2023/12/28 09:38:13;;;;;;;18.30;3.45;;;11.60;99.90;;;;;;5038755;28;20025;-74
2023/12/28 09:40:41;;;;;;;12.10;3.15;;;11.70;99.90;;;;;;5039087;28;20553;-75
2023/12/28 09:43:21;;;;;;;15.88;3.13;;;11.70;99.90;;;;;;5034774;28;20083;-74
2023/12/28 09:45:50;;;;;;;18.10;3.08;;;11.70;99.90;;;;;;5036977;28;20541;-75
2023/12/28 09:48:20;;;;;;;16.00;3.00;;;11.80;99.90;;;;;;5035735;28;20355;-74
2023/12/28 09:50:54;;;;;;;17.65;2.72;;;11.80;99.90;;;;;;5037002;28;20623;-74
2023/12/28 09:53:26;;;;;;;14.50;2.83;;;11.90;99.90;;;;;;5034637;28;20036;-74
2023/12/28 09:55:52;;;;;;;15.60;3.10;;;11.90;99.90;;;;;;5031178;28;20105;-74
2023/12/28 09:58:20;;;;;;;18.40;3.55;;;12.00;99.90;;;;;;5034626;28;20032;-75
2023/12/28 10:00:47;;;;;;;15.10;2.53;;;12.10;99.90;;;;;;5035432;28;20017;-75
2023/12/28 10:03:14;;;;;;;20.23;3.42;;;12.00;99.90;;;;;;5033713;28;20433;-74
2023/12/28 10:05:44;;;;;;;13.70;2.67;;;12.20;99.90;;;;;;5034584;28;20167;-74
2023/12/28 10:08:13;;;;;;;16.00;3.20;;;12.20;99.90;;;;;;5035433;28;20029;-73
2023/12/28 10:10:39;;;;;;;22.40;3.67;;;12.20;99.90;;;;;;5030949;28;20029;-74
2023/12/28 10:13:07;;;;;;;21.92;3.60;;;12.20;99.90;;;;;;5029960;28;20029;-74
2023/12/28 10:15:33;;;;;;;20.17;3.25;;;12.20;99.90;;;;;;5034839;28;20028;-76
2023/12/28 10:17:58;;;;;;;17.45;2.95;;;12.20;99.90;;;;;;5034040;28;20337;-79
2023/12/28 10:20:27;;;;;;;14.55;3.72;;;12.20;99.90;;;;;;5033741;28;20404;-74
2023/12/28 10:22:53;;;;;;;14.55;3.05;;;12.30;99.90;;;;;;5033442;28;20116;-75
2023/12/28 10:25:19;;;;;;;18.55;3.67;;;12.30;99.90;;;;;;5035281;28;20163;-73
2023/12/28 10:27:44;;;;;;;15.82;3.47;;;12.30;99.90;;;;;;5032897;28;20025;-76
2023/12/28 10:30:10;;;;;;;17.75;3.50;;;12.20;99.90;;;;;;5032973;28;20026;-76
2023/12/28 10:32:40;;;;;;;12.80;2.95;;;12.30;99.90;;;;;;5035676;28;20052;-76
2023/12/28 10:35:06;;;;;;;14.35;2.78;;;12.30;99.90;;;;;;5036170;28;20037;-76
2023/12/28 10:37:35;;;;;;;14.70;3.13;;;12.30;99.90;;;;;;5034104;28;20493;-76
2023/12/28 10:40:06;;;;;;;14.65;4.05;;;12.40;99.90;;;;;;5034574;28;20037;-76
2023/12/28 10:42:33;;;;;;;14.32;3.05;;;12.40;99.90;;;;;;5032789;28;20070;-76
2023/12/28 10:45:06;;;;;;;29.15;3.97;;;12.40;99.90;;;;;;5031875;28;20033;-76
2023/12/28 10:47:35;;;;;;;15.50;3.15;;;12.40;99.90;;;;;;5035949;28;20013;-77
2023/12/28 10:50:05;;;;;;;19.42;3.60;;;12.50;99.90;;;;;;5036471;28;20040;-75
2023/12/28 10:52:32;;;;;;;15.77;3.08;;;12.50;99.90;;;;;;5036863;28;20025;-74
2023/12/28 10:55:32;;;;;;;17.88;3.30;;;12.50;99.90;;;;;;5033236;28;20588;-75
2023/12/28 10:58:32;;;;;;;15.82;3.10;;;12.50;99.90;;;;;;5033468;28;20032;-73
2023/12/28 11:01:02;;;;;;;19.15;3.13;;;12.50;99.90;;;;;;5033659;28;20072;-74
2023/12/28 11:03:55;;;;;;;11.38;2.70;;;12.50;99.90;;;;;;5030643;28;20048;-74
2023/12/28 11:06:21;;;;;;;23.67;3.33;;;12.50;99.90;;;;;;4984689;28;20047;-74
2023/12/28 11:08:51;;;;;;;19.40;3.50;;;12.60;99.90;;;;;;4962993;28;20054;-73
2023/12/28 11:11:18;;;;;;;13.00;3.58;;;12.60;99.90;;;;;;4949040;28;20651;-74
2023/12/28 11:13:53;;;;;;;26.05;3.25;;;12.70;99.90;;;;;;4942836;28;20028;-74
2023/12/28 11:16:22;;;;;;;16.02;3.03;;;12.70;99.90;;;;;;4959587;28;20026;-75
2023/12/28 11:18:48;;;;;;;20.25;4.28;;;12.60;99.90;;;;;;5034708;28;20398;-75
2023/12/28 11:21:16;;;;;;;17.73;3.10;;;12.50;99.90;;;;;;5031988;28;20021;-75
2023/12/28 11:23:43;;;;;;;14.75;2.97;;;12.60;99.90;;;;;;5036751;28;20032;-75
2023/12/28 11:26:21;;;;;;;17.15;3.50;;;12.60;99.90;;;;;;5036885;28;20021;-74
2023/12/28 11:28:48;;;;;;;12.82;3.22;;;12.60;99.90;;;;;;5027051;28;20412;-73
2023/12/28 11:31:17;;;;;;;18.02;3.45;;;12.70;99.90;;;;;;5028741;28;20513;-75
2023/12/28 11:34:11;;;;;;;17.10;4.10;;;12.60;99.90;;;;;;5040630;28;20029;-74
2023/12/28 11:36:50;;;;;;;20.52;3.40;;;12.70;99.90;;;;;;5033990;28;20373;-77
2023/12/28 11:39:26;;;;;;;12.15;3.60;;;12.70;99.90;;;;;;5041811;28;20029;-75
2023/12/28 11:42:05;;;;;;;21.05;4.18;;;12.70;99.90;;;;;;5038172;28;20025;-77
2023/12/28 11:44:44;;;;;;;19.38;3.60;;;12.70;99.90;;;;;;5037307;28;20388;-74
2023/12/28 11:47:24;;;;;;;13.75;3.00;;;12.80;99.90;;;;;;5038739;28;20053;-74
2023/12/28 11:49:54;;;;;;;15.18;3.40;;;12.80;99.90;;;;;;5039132;28;20033;-74
2023/12/28 11:52:24;;;;;;;17.58;2.97;;;12.80;99.90;;;;;;5037165;28;20116;-74
2023/12/28 11:54:50;;;;;;;18.77;3.30;;;12.70;99.90;;;;;;5038154;28;20038;-74
2023/12/28 11:57:16;;;;;;;19.35;3.67;;;12.70;99.90;;;;;;5038079;28;20067;-74
2023/12/28 11:59:43;;;;;;;18.65;3.88;;;12.80;99.90;;;;;;5036970;28;20522;-74
2023/12/28 12:02:09;;;;;;;19.02;3.15;;;12.80;99.90;;;;;;5038728;28;20483;-74
2023/12/28 12:04:35;;;;;;;20.33;3.30;;;12.90;99.90;;;;;;5039283;28;20033;-74
2023/12/28 12:07:04;;;;;;;19.15;3.75;;;12.90;99.90;;;;;;5039210;28;20032;-74
2023/12/28 12:09:34;;;;;;;17.60;4.03;;;12.80;99.90;;;;;;5037989;28;20102;-74
2023/12/28 12:12:01;;;;;;;17.23;4.10;;;12.80;99.90;;;;;;5035842;28;20033;-74
2023/12/28 12:14:28;;;;;;;18.30;3.40;;;12.80;99.90;;;;;;5038006;28;20107;-74
2023/12/28 12:16:56;;;;;;;17.20;3.30;;;12.80;99.90;;;;;;5034437;28;20102;-74
2023/12/28 12:19:25;;;;;;;19.38;3.90;;;12.90;99.90;;;;;;5037115;28;20033;-75
2023/12/28 12:21:55;;;;;;;22.30;4.63;;;12.90;99.90;;;;;;5038434;28;20035;-76
2023/12/28 12:24:21;;;;;;;18.00;3.90;;;12.80;99.90;;;;;;5039459;28;20544;-74
2023/12/28 12:26:47;;;;;;;17.60;3.33;;;12.80;99.90;;;;;;5034219;28;20485;-75
2023/12/28 12:29:17;;;;;;;22.23;4.10;;;12.90;99.90;;;;;;5034897;28;20021;-76
2023/12/28 12:31:44;;;;;;;23.23;3.88;;;12.80;99.90;;;;;;5038922;28;20032;-75
2023/12/28 12:34:10;;;;;;;15.82;3.90;;;12.80;99.90;;;;;;5035370;28;20021;-74
2023/12/28 12:36:37;;;;;;;23.98;4.82;;;12.80;99.90;;;;;;5039133;28;20021;-77
2023/12/28 12:39:06;;;;;;;22.17;3.45;;;12.80;99.90;;;;;;5036928;28;20034;-75
2023/12/28 12:41:33;;;;;;;21.20;4.05;;;12.80;99.90;;;;;;5036050;28;20486;-75